createdAt,value
2022-12-18T00:01:45.552Z,101359.78
2022-12-18T00:04:26.075Z,101348.94
2022-12-18T00:06:54.017Z,101351.03
2022-12-18T00:09:21.917Z,101346.31
2022-12-18T00:11:51.873Z,101348.69
2022-12-18T00:14:19.111Z,101352.78
2022-12-18T00:16:47.886Z,101356.22
2022-12-18T00:19:15.825Z,101361.16
2022-12-18T00:21:43.929Z,101361.38
2022-12-18T00:24:12.171Z,101361.06
2022-12-18T00:26:40.451Z,101371.50
2022-12-18T00:29:16.773Z,101374.56
2022-12-18T00:31:44.755Z,101371.69
2022-12-18T00:34:14.355Z,101375.13
2022-12-18T00:36:42.403Z,101372.56
2022-12-18T00:39:11.580Z,101379.31
2022-12-18T00:42:02.680Z,101384.66
2022-12-18T00:44:29.671Z,101387.03
2022-12-18T00:46:56.624Z,101384.34
2022-12-18T00:49:23.703Z,101371.84
2022-12-18T00:51:50.953Z,101375.25
2022-12-18T00:54:18.568Z,101376.66
2022-12-18T00:56:49.433Z,101368.84
2022-12-18T00:59:18.492Z,101388.59
2022-12-18T01:01:46.158Z,101397.31
2022-12-18T01:04:13.338Z,101382.53
2022-12-18T01:06:41.073Z,101388.72
2022-12-18T01:09:08.084Z,101392.78
2022-12-18T01:11:35.064Z,101391.59
2022-12-18T01:14:02.093Z,101397.03
2022-12-18T01:16:29.082Z,101394.41
2022-12-18T01:18:56.492Z,101396.97
2022-12-18T01:21:25.366Z,101398.22
2022-12-18T01:23:57.416Z,101393.97
2022-12-18T01:26:26.745Z,101394.88
2022-12-18T01:28:56.531Z,101386.13
2022-12-18T01:31:31.188Z,101377.69
2022-12-18T01:34:01.755Z,101395.97
2022-12-18T01:36:36.840Z,101403.53
2022-12-18T01:42:02.574Z,101415.44
2022-12-18T01:45:14.718Z,101410.78
2022-12-18T01:47:47.176Z,101407.94
2022-12-18T01:50:28.855Z,101399.03
2022-12-18T01:53:03.779Z,101399.44
2022-12-18T01:55:37.243Z,101402.63
2022-12-18T01:58:05.099Z,101396.41
2022-12-18T02:00:32.871Z,101401.25
2022-12-18T02:02:59.962Z,101407.59
2022-12-18T02:05:49.944Z,101404.19
2022-12-18T02:08:48.756Z,101417.59
2022-12-18T02:11:46.122Z,101417.72
2022-12-18T02:14:21.591Z,101409.63
2022-12-18T02:17:16.517Z,101412.81
2022-12-18T02:20:04.307Z,101424.59
2022-12-18T02:22:56.223Z,101434.09
2022-12-18T02:26:04.335Z,101409.19
2022-12-18T02:28:37.859Z,101406.00
2022-12-18T02:31:09.366Z,101423.50
2022-12-18T02:33:39.041Z,101404.31
2022-12-18T02:36:08.727Z,101406.72
2022-12-18T02:38:37.496Z,101403.88
2022-12-18T02:41:05.596Z,101424.25
2022-12-18T02:43:32.775Z,101432.13
2022-12-18T02:46:01.927Z,101436.34
2022-12-18T02:48:36.280Z,101419.16
2022-12-18T02:51:32.674Z,101401.19
2022-12-18T02:54:19.232Z,101405.53
2022-12-18T02:56:56.345Z,101420.78
2022-12-18T02:59:38.107Z,101417.81
2022-12-18T03:02:28.001Z,101407.97
2022-12-18T03:05:09.633Z,101400.97
2022-12-18T03:07:54.684Z,101395.06
2022-12-18T03:10:30.074Z,101404.16
2022-12-18T03:13:07.260Z,101423.31
2022-12-18T03:15:49.484Z,101421.63
2022-12-18T03:18:34.185Z,101415.91
2022-12-18T03:21:06.516Z,101411.25
2022-12-18T03:23:42.509Z,101409.25
2022-12-18T03:26:15.073Z,101422.06
2022-12-18T03:28:52.588Z,101425.13
2022-12-18T03:31:23.593Z,101426.03
2022-12-18T03:34:05.359Z,101414.41
2022-12-18T03:36:32.929Z,101428.00
2022-12-18T03:39:00.133Z,101430.31
2022-12-18T03:41:58.145Z,101412.78
2022-12-18T03:44:45.112Z,101417.34
2022-12-18T03:47:20.785Z,101419.78
2022-12-18T03:50:12.331Z,101425.63
2022-12-18T03:53:18.219Z,101430.44
2022-12-18T03:55:46.776Z,101428.78
2022-12-18T03:58:19.493Z,101426.06
2022-12-18T04:00:49.185Z,101430.31
2022-12-18T04:03:17.652Z,101420.97
2022-12-18T04:05:47.031Z,101420.78
2022-12-18T04:08:14.716Z,101413.25
2022-12-18T04:10:41.738Z,101421.69
2022-12-18T04:13:09.544Z,101427.13
2022-12-18T04:15:38.226Z,101420.69
2022-12-18T04:18:05.321Z,101417.97
2022-12-18T04:20:32.262Z,101432.53
2022-12-18T04:22:59.170Z,101432.25
2022-12-18T04:25:26.144Z,101431.78
2022-12-18T04:27:53.088Z,101431.31
2022-12-18T04:30:20.075Z,101422.25
2022-12-18T04:32:52.037Z,101417.41
2022-12-18T04:35:19.376Z,101409.59
2022-12-18T04:37:46.730Z,101422.88
2022-12-18T04:40:14.999Z,101421.53
2022-12-18T04:42:42.258Z,101427.13
2022-12-18T04:45:10.216Z,101433.53
2022-12-18T04:47:37.295Z,101427.06
2022-12-18T04:50:04.897Z,101414.41
2022-12-18T04:52:31.885Z,101424.69
2022-12-18T04:54:58.838Z,101425.72
2022-12-18T04:57:25.824Z,101411.31
2022-12-18T04:59:52.789Z,101424.53
2022-12-18T05:02:19.992Z,101435.28
2022-12-18T05:04:47.093Z,101447.94
2022-12-18T05:07:14.131Z,101445.94
2022-12-18T05:09:41.171Z,101429.69
2022-12-18T05:12:08.758Z,101439.34
2022-12-18T05:14:35.719Z,101441.03
2022-12-18T05:17:02.639Z,101422.91
2022-12-18T05:19:29.662Z,101429.25
2022-12-18T05:21:56.648Z,101427.44
2022-12-18T05:24:23.736Z,101429.41
2022-12-18T05:26:51.331Z,101431.50
2022-12-18T05:29:18.326Z,101427.72
2022-12-18T05:31:45.336Z,101430.91
2022-12-18T05:34:12.735Z,101431.22
2022-12-18T05:36:39.990Z,101424.78
2022-12-18T05:39:07.733Z,101434.25
2022-12-18T05:41:34.717Z,101440.13
2022-12-18T05:44:01.787Z,101423.25
2022-12-18T05:46:29.186Z,101438.50
2022-12-18T05:48:56.490Z,101434.69
2022-12-18T05:51:24.001Z,101426.88
2022-12-18T05:53:50.988Z,101424.16
2022-12-18T05:56:22.513Z,101422.34
2022-12-18T05:58:54.064Z,101416.03
2022-12-18T06:01:27.389Z,101424.63
2022-12-18T06:03:55.414Z,101427.84
2022-12-18T06:06:26.084Z,101429.81
2022-12-18T06:08:54.219Z,101433.41
2022-12-18T06:11:25.820Z,101434.19
2022-12-18T06:13:59.097Z,101436.03
2022-12-18T06:16:28.093Z,101427.00
2022-12-18T06:19:01.416Z,101436.66
2022-12-18T06:21:29.581Z,101427.72
2022-12-18T06:23:56.999Z,101431.84
2022-12-18T06:26:28.393Z,101408.44
2022-12-18T06:28:55.757Z,101433.47
2022-12-18T06:31:22.996Z,101421.13
2022-12-18T06:33:49.996Z,101429.28
2022-12-18T06:36:17.756Z,101419.81
2022-12-18T06:38:45.652Z,101421.03
2022-12-18T06:41:16.236Z,101443.81
2022-12-18T06:43:44.001Z,101436.56
2022-12-18T06:46:11.467Z,101440.78
2022-12-18T06:48:38.717Z,101444.56
2022-12-18T06:51:06.362Z,101438.25
2022-12-18T06:53:34.512Z,101443.38
2022-12-18T06:56:10.159Z,101434.47
2022-12-18T06:58:38.179Z,101436.88
2022-12-18T07:01:09.984Z,101432.66
2022-12-18T07:03:38.921Z,101441.09
2022-12-18T07:06:07.069Z,101435.22
2022-12-18T07:08:50.644Z,101432.81
2022-12-18T07:11:19.265Z,101431.44
2022-12-18T07:13:47.281Z,101427.53
2022-12-18T07:16:24.368Z,101412.31
2022-12-18T07:18:53.621Z,101417.47
2022-12-18T07:21:23.488Z,101407.34
2022-12-18T07:23:50.692Z,101426.31
2022-12-18T07:26:21.895Z,101409.44
2022-12-18T07:28:49.792Z,101436.13
2022-12-18T07:31:23.266Z,101432.97
2022-12-18T07:33:51.632Z,101422.28
2022-12-18T07:36:19.607Z,101434.34
2022-12-18T07:38:49.417Z,101420.47
2022-12-18T07:41:17.241Z,101431.78
2022-12-18T07:43:44.703Z,101447.00
2022-12-18T07:46:14.908Z,101450.31
2022-12-18T07:48:43.409Z,101453.50
2022-12-18T07:51:14.339Z,101457.13
2022-12-18T07:53:43.077Z,101448.09
2022-12-18T07:56:30.412Z,101464.66
2022-12-18T07:59:00.291Z,101462.09
2022-12-18T08:01:28.466Z,101473.72
2022-12-18T08:03:55.711Z,101474.78
2022-12-18T08:06:24.147Z,101480.53
2022-12-18T08:08:56.915Z,101483.41
2022-12-18T08:11:26.674Z,101491.41
2022-12-18T08:13:54.299Z,101491.25
2022-12-18T08:16:22.843Z,101486.72
2022-12-18T08:18:50.837Z,101494.13
2022-12-18T08:21:24.805Z,101509.66
2022-12-18T08:23:54.404Z,101517.41
2022-12-18T08:26:21.812Z,101515.00
2022-12-18T08:28:50.001Z,101513.78
2022-12-18T08:31:19.117Z,101511.50
2022-12-18T08:33:46.626Z,101522.53
2022-12-18T08:36:13.992Z,101518.00
2022-12-18T08:38:41.097Z,101518.75
2022-12-18T08:41:14.860Z,101513.16
2022-12-18T08:44:03.174Z,101521.75
2022-12-18T08:46:36.978Z,101524.63
2022-12-18T08:49:05.432Z,101517.38
2022-12-18T08:51:32.712Z,101520.22
2022-12-18T08:54:00.013Z,101528.97
2022-12-18T08:56:27.081Z,101529.41
2022-12-18T08:58:55.716Z,101537.72
2022-12-18T09:01:23.608Z,101532.72
2022-12-18T09:03:52.080Z,101533.94
2022-12-18T09:06:22.025Z,101533.16
2022-12-18T09:08:49.391Z,101540.72
2022-12-18T09:11:23.100Z,101560.06
2022-12-18T09:13:51.156Z,101556.09
2022-12-18T09:16:18.691Z,101548.88
2022-12-18T09:18:45.991Z,101551.13
2022-12-18T09:21:21.698Z,101549.44
2022-12-18T09:24:02.969Z,101556.41
2022-12-18T09:26:33.049Z,101559.84
2022-12-18T09:28:59.966Z,101565.75
2022-12-18T09:31:27.012Z,101552.75
2022-12-18T09:33:57.573Z,101575.53
2022-12-18T09:36:25.279Z,101578.56
2022-12-18T09:38:52.493Z,101588.66
2022-12-18T09:41:42.009Z,101602.25
2022-12-18T09:44:29.498Z,101605.31
2022-12-18T09:47:02.278Z,101606.06
2022-12-18T09:49:34.605Z,101620.72
2022-12-18T09:52:14.062Z,101610.53
2022-12-18T09:54:44.573Z,101630.63
2022-12-18T09:57:23.728Z,101620.44
2022-12-18T09:59:57.855Z,101623.31
2022-12-18T10:02:27.409Z,101628.25
2022-12-18T10:05:16.002Z,101633.69
2022-12-18T10:07:51.525Z,101631.31
2022-12-18T10:10:47.901Z,101624.78
2022-12-18T10:13:31.184Z,101636.13
2022-12-18T10:16:05.292Z,101643.53
2022-12-18T10:22:58.729Z,101646.25
2022-12-18T10:25:37.883Z,101657.97
2022-12-18T10:28:16.625Z,101654.72
2022-12-18T10:30:45.091Z,101663.22
2022-12-18T10:33:23.868Z,101647.31
2022-12-18T10:35:54.328Z,101641.69
2022-12-18T10:38:33.022Z,101630.13
2022-12-18T10:41:31.882Z,101637.84
2022-12-18T10:44:23.178Z,101621.56
2022-12-18T10:46:57.228Z,101635.91
2022-12-18T10:49:32.588Z,101646.59
2022-12-18T10:52:29.296Z,101640.94
2022-12-18T10:55:04.266Z,101649.09
2022-12-18T10:57:42.030Z,101641.16
2022-12-18T11:00:22.064Z,101666.53
2022-12-18T11:02:49.842Z,101666.16
2022-12-18T11:05:38.029Z,101666.94
2022-12-18T11:08:05.306Z,101657.59
2022-12-18T11:10:41.917Z,101655.94
2022-12-18T11:13:25.447Z,101671.34
2022-12-18T11:15:53.073Z,101673.41
2022-12-18T11:18:31.871Z,101660.25
2022-12-18T11:21:08.401Z,101663.28
2022-12-18T11:23:36.455Z,101658.63
2022-12-18T11:26:07.011Z,101637.66
2022-12-18T11:28:42.622Z,101647.84
2022-12-18T11:31:26.524Z,101654.88
2022-12-18T11:34:28.769Z,101642.75
2022-12-18T11:36:59.215Z,101647.88
2022-12-18T11:39:41.463Z,101632.59
2022-12-18T11:42:28.315Z,101635.72
2022-12-18T11:45:28.816Z,101627.53
2022-12-18T11:48:06.769Z,101620.16
2022-12-18T11:50:49.107Z,101615.75
2022-12-18T11:53:16.345Z,101612.47
2022-12-18T11:55:51.696Z,101620.66
2022-12-18T11:58:53.132Z,101621.50
2022-12-18T12:01:52.888Z,101631.25
2022-12-18T12:05:00.279Z,101596.47
2022-12-18T12:07:56.325Z,101609.06
2022-12-18T12:10:53.379Z,101580.09
2022-12-18T12:13:51.714Z,101584.75
2022-12-18T12:16:49.905Z,101611.41
2022-12-18T12:20:01.209Z,101614.75
2022-12-18T12:22:42.384Z,101610.63
2022-12-18T12:25:35.768Z,101612.19
2022-12-18T12:28:33.726Z,101604.06
2022-12-18T12:31:54.091Z,101597.47
2022-12-18T12:34:45.678Z,101594.13
2022-12-18T12:37:56.286Z,101594.91
2022-12-18T12:43:33.423Z,101594.94
2022-12-18T12:46:10.352Z,101591.19
2022-12-18T12:48:49.245Z,101593.38
2022-12-18T12:51:25.486Z,101585.09
2022-12-18T12:53:54.745Z,101581.13
2022-12-18T12:56:23.452Z,101573.50
2022-12-18T12:59:18.256Z,101579.69
2022-12-18T13:02:20.090Z,101567.16
2022-12-18T13:04:58.389Z,101574.28
2022-12-18T13:07:40.646Z,101565.34
2022-12-18T13:10:23.803Z,101561.59
2022-12-18T13:13:09.176Z,101559.56
2022-12-18T13:16:07.899Z,101555.28
2022-12-18T13:18:35.692Z,101545.34
2022-12-18T13:21:07.240Z,101552.56
2022-12-18T13:23:41.004Z,101552.97
2022-12-18T13:26:11.168Z,101549.59
2022-12-18T13:28:47.641Z,101557.88
2022-12-18T13:31:41.971Z,101560.47
2022-12-18T13:34:33.699Z,101544.31
2022-12-18T13:37:44.462Z,101550.78
2022-12-18T13:40:51.041Z,101545.75
2022-12-18T13:43:23.433Z,101557.38
2022-12-18T13:46:20.182Z,101538.00
2022-12-18T13:48:59.419Z,101529.47
2022-12-18T13:51:28.009Z,101521.19
2022-12-18T13:54:07.797Z,101545.97
2022-12-18T13:56:35.415Z,101545.19
2022-12-18T13:59:27.427Z,101533.69
2022-12-18T14:01:57.617Z,101517.28
2022-12-18T14:04:49.883Z,101545.59
2022-12-18T14:07:33.109Z,101535.25
2022-12-18T14:10:41.799Z,101521.31
2022-12-18T14:13:08.530Z,101511.88
2022-12-18T14:15:45.407Z,101507.34
2022-12-18T14:18:23.016Z,101522.19
2022-12-18T14:20:54.105Z,101521.44
2022-12-18T14:23:40.184Z,101522.84
2022-12-18T14:26:30.373Z,101529.94
2022-12-18T14:28:59.686Z,101523.22
2022-12-18T14:31:30.421Z,101521.00
2022-12-18T14:33:57.468Z,101527.59
2022-12-18T14:36:28.111Z,101526.03
2022-12-18T14:39:00.281Z,101526.03
2022-12-18T14:41:28.778Z,101517.75
2022-12-18T14:43:56.415Z,101526.94
2022-12-18T14:46:35.477Z,101521.66
2022-12-18T14:49:24.575Z,101521.78
2022-12-18T14:52:01.300Z,101522.03
2022-12-18T14:54:30.237Z,101538.31
2022-12-18T14:57:15.307Z,101526.03
2022-12-18T14:59:42.584Z,101521.25
2022-12-18T15:02:24.446Z,101520.84
2022-12-18T15:05:17.430Z,101512.34
2022-12-18T15:07:48.206Z,101509.75
2022-12-18T15:10:27.169Z,101512.47
2022-12-18T15:12:57.236Z,101510.13
2022-12-18T15:15:40.716Z,101514.16
2022-12-18T15:18:13.408Z,101506.13
2022-12-18T15:21:01.653Z,101498.78
2022-12-18T15:23:49.347Z,101507.81
2022-12-18T15:26:22.126Z,101512.47
2022-12-18T15:28:56.664Z,101524.22
2022-12-18T15:31:25.456Z,101515.97
2022-12-18T15:33:55.462Z,101521.81
2022-12-18T15:36:26.833Z,101531.63
2022-12-18T15:39:05.227Z,101529.81
2022-12-18T15:41:36.384Z,101541.31
2022-12-18T15:44:25.156Z,101533.97
2022-12-18T15:46:52.355Z,101540.94
2022-12-18T15:49:19.483Z,101536.81
2022-12-18T15:51:53.078Z,101529.19
2022-12-18T15:54:40.482Z,101539.66
2022-12-18T15:57:24.749Z,101540.16
2022-12-18T15:59:54.988Z,101538.47
2022-12-18T16:02:24.171Z,101541.31
2022-12-18T16:04:58.073Z,101545.22
2022-12-18T16:07:28.121Z,101542.22
2022-12-18T16:09:58.345Z,101546.13
2022-12-18T16:12:27.000Z,101548.97
2022-12-18T16:14:54.093Z,101549.88
2022-12-18T16:17:21.262Z,101547.53
2022-12-18T16:19:48.468Z,101551.16
2022-12-18T16:22:24.368Z,101549.34
2022-12-18T16:24:53.330Z,101547.94
2022-12-18T16:27:22.385Z,101532.06
2022-12-18T16:29:52.685Z,101530.38
2022-12-18T16:32:22.122Z,101523.41
2022-12-18T16:34:50.328Z,101536.44
2022-12-18T16:37:17.617Z,101533.34
2022-12-18T16:39:45.672Z,101540.59
2022-12-18T16:42:20.170Z,101536.72
2022-12-18T16:44:50.792Z,101537.09
2022-12-18T16:47:19.214Z,101541.63
2022-12-18T16:49:46.633Z,101537.63
2022-12-18T16:52:14.618Z,101541.38
2022-12-18T16:54:42.022Z,101536.22
2022-12-18T16:57:14.286Z,101542.28
2022-12-18T16:59:41.444Z,101536.22
2022-12-18T17:02:25.962Z,101536.59
2022-12-18T17:04:58.612Z,101526.00
2022-12-18T17:07:27.784Z,101529.63
2022-12-18T17:09:55.314Z,101520.84
2022-12-18T17:12:23.237Z,101526.13
2022-12-18T17:14:50.596Z,101521.75
2022-12-18T17:17:21.299Z,101520.31
2022-12-18T17:19:49.807Z,101510.75
2022-12-18T17:22:17.086Z,101520.19
2022-12-18T17:24:44.284Z,101517.72
2022-12-18T17:27:11.626Z,101523.06
2022-12-18T17:29:45.334Z,101533.00
2022-12-18T17:32:15.553Z,101526.03
2022-12-18T17:34:42.759Z,101521.38
2022-12-18T17:37:10.770Z,101527.19
2022-12-18T17:39:38.211Z,101525.38
2022-12-18T17:42:05.795Z,101513.22
2022-12-18T17:44:35.127Z,101517.75
2022-12-18T17:47:03.133Z,101511.41
2022-12-18T17:49:31.376Z,101503.91
2022-12-18T17:51:58.923Z,101498.63
2022-12-18T17:54:26.285Z,101495.25
2022-12-18T17:56:53.851Z,101488.03
2022-12-18T17:59:22.952Z,101493.19
2022-12-18T18:01:50.640Z,101485.31
2022-12-18T18:04:18.385Z,101486.59
2022-12-18T18:06:45.490Z,101490.50
2022-12-18T18:09:16.339Z,101487.91
2022-12-18T18:12:05.115Z,101492.03
2022-12-18T18:14:33.556Z,101472.66
2022-12-18T18:17:04.756Z,101491.25
2022-12-18T18:19:33.325Z,101480.56
2022-12-18T18:22:01.782Z,101491.91
2022-12-18T18:24:30.186Z,101485.06
2022-12-18T18:27:01.915Z,101498.38
2022-12-18T18:29:32.924Z,101497.19
2022-12-18T18:32:00.350Z,101497.69
2022-12-18T18:34:31.193Z,101501.97
2022-12-18T18:36:58.550Z,101494.22
2022-12-18T18:39:26.278Z,101496.41
2022-12-18T18:41:53.972Z,101500.13
2022-12-18T18:44:25.833Z,101502.44
2022-12-18T18:46:57.961Z,101490.66
2022-12-18T18:49:27.884Z,101493.25
2022-12-18T18:51:56.925Z,101483.81
2022-12-18T18:54:25.581Z,101478.66
2022-12-18T18:59:39.979Z,101482.50
2022-12-18T19:02:11.593Z,101483.16
2022-12-18T19:04:44.039Z,101478.88
2022-12-18T19:07:13.773Z,101462.22
2022-12-18T19:09:52.058Z,101473.72
2022-12-18T19:12:41.183Z,101464.03
2022-12-18T19:15:08.560Z,101459.88
2022-12-18T19:17:37.528Z,101467.66
2022-12-18T19:20:05.962Z,101471.13
2022-12-18T19:22:33.004Z,101475.78
2022-12-18T19:25:00.161Z,101466.50
2022-12-18T19:27:28.495Z,101466.88
2022-12-18T19:29:55.891Z,101465.84
2022-12-18T19:32:23.020Z,101468.56
2022-12-18T19:34:50.156Z,101470.22
2022-12-18T19:37:17.255Z,101475.41
2022-12-18T19:39:44.555Z,101468.56
2022-12-18T19:42:11.600Z,101473.97
2022-12-18T19:44:38.696Z,101466.09
2022-12-18T19:47:05.809Z,101464.00
2022-12-18T19:49:33.264Z,101467.34
2022-12-18T19:52:01.335Z,101457.78
2022-12-18T19:54:29.329Z,101449.91
2022-12-18T19:56:56.458Z,101451.84
2022-12-18T19:59:23.980Z,101461.53
2022-12-18T20:01:51.627Z,101455.56
2022-12-18T20:04:19.068Z,101458.16
2022-12-18T20:06:51.792Z,101455.94
2022-12-18T20:09:20.945Z,101459.44
2022-12-18T20:11:49.243Z,101466.66
2022-12-18T20:14:22.993Z,101464.56
2022-12-18T20:16:52.344Z,101455.78
2022-12-18T20:22:09.788Z,101458.72
2022-12-18T20:24:36.844Z,101446.44
2022-12-18T20:27:04.134Z,101436.47
2022-12-18T20:29:31.192Z,101440.63
2022-12-18T20:31:58.270Z,101439.06
2022-12-18T20:34:25.370Z,101428.72
2022-12-18T20:36:53.042Z,101436.59
2022-12-18T20:39:20.542Z,101427.16
2022-12-18T20:41:48.391Z,101426.13
2022-12-18T20:44:22.321Z,101427.81
2022-12-18T20:46:56.575Z,101425.22
2022-12-18T20:49:26.414Z,101425.22
2022-12-18T20:51:56.467Z,101420.16
2022-12-18T20:54:26.849Z,101410.19
2022-12-18T20:56:55.152Z,101417.16
2022-12-18T20:59:25.218Z,101421.78
2022-12-18T21:01:54.202Z,101415.84
2022-12-18T21:04:21.963Z,101408.84
2022-12-18T21:06:59.253Z,101416.75
2022-12-18T21:09:37.852Z,101412.34
2022-12-18T21:12:27.676Z,101414.81
2022-12-18T21:14:54.825Z,101409.75
2022-12-18T21:17:21.917Z,101407.16
2022-12-18T21:19:48.874Z,101401.88
2022-12-18T21:22:16.451Z,101411.31
2022-12-18T21:24:43.464Z,101409.41
2022-12-18T21:27:10.603Z,101408.50
2022-12-18T21:29:41.339Z,101397.25
2022-12-18T21:32:09.452Z,101399.03
2022-12-18T21:34:37.189Z,101402.53
2022-12-18T21:37:15.988Z,101406.69
2022-12-18T21:39:42.955Z,101414.22
2022-12-18T21:42:30.934Z,101423.78
2022-12-18T21:44:58.186Z,101428.16
2022-12-18T21:47:25.179Z,101437.75
2022-12-18T21:52:43.971Z,101443.03
2022-12-18T21:55:10.955Z,101442.13
2022-12-18T21:57:39.398Z,101437.19
2022-12-18T22:00:11.232Z,101438.88
2022-12-18T22:02:47.268Z,101424.25
2022-12-18T22:05:14.535Z,101417.28
2022-12-18T22:07:41.554Z,101420.88
2022-12-18T22:10:09.125Z,101420.09
2022-12-18T22:12:43.275Z,101420.88
2022-12-18T22:15:21.360Z,101423.59
2022-12-18T22:17:50.676Z,101418.53
2022-12-18T22:20:19.931Z,101416.97
2022-12-18T22:22:48.386Z,101414.38
2022-12-18T22:25:15.431Z,101410.91
2022-12-18T22:27:43.527Z,101408.97
2022-12-18T22:30:17.495Z,101402.13
2022-12-18T22:32:44.525Z,101411.69
2022-12-18T22:35:15.911Z,101416.06
2022-12-18T22:37:43.156Z,101415.97
2022-12-18T22:40:25.761Z,101416.31
2022-12-18T22:42:56.469Z,101421.50
2022-12-18T22:45:25.537Z,101412.72
2022-12-18T22:47:52.491Z,101414.38
2022-12-18T22:50:19.792Z,101410.91
2022-12-18T22:52:46.881Z,101409.34
2022-12-18T22:55:13.807Z,101405.97
2022-12-18T22:57:42.377Z,101416.56
2022-12-18T23:00:16.380Z,101414.63
2022-12-18T23:02:45.113Z,101414.88
2022-12-18T23:05:12.194Z,101409.81
2022-12-18T23:07:39.173Z,101410.59
2022-12-18T23:10:06.791Z,101415.78
2022-12-18T23:12:33.740Z,101409.56
2022-12-18T23:15:04.125Z,101408.78
2022-12-18T23:17:31.123Z,101414.88
2022-12-18T23:19:58.144Z,101411.38
2022-12-18T23:22:25.103Z,101414.22
2022-12-18T23:24:52.092Z,101401.03
2022-12-18T23:27:19.667Z,101398.44
2022-12-18T23:29:46.611Z,101399.22
2022-12-18T23:32:14.927Z,101404.41
2022-12-18T23:34:41.972Z,101391.56
2022-12-18T23:37:09.016Z,101400.38
2022-12-18T23:39:35.993Z,101391.47
2022-12-18T23:42:03.059Z,101394.03
2022-12-18T23:44:30.450Z,101386.41
2022-12-18T23:46:57.523Z,101387.41
2022-12-18T23:49:24.622Z,101380.09
2022-12-18T23:51:55.180Z,101381.22
2022-12-18T23:54:22.705Z,101390.00
2022-12-18T23:56:59.829Z,101374.25
2022-12-18T23:59:26.747Z,101371.66
